Aérodrome :
LOGIN :

S'inscrire | Disclaimer

   EN    FR    IT 

 










Légende :    VFR   VFR Marginal   IFR   IFR Intensif   IFR Très Intensif
Visi : 
Plafond : 
>= 8 km
>= 3000ft
5 à 8 km
1000 à 3000 ft
1500m à 5 km
500 à 1000 ft
800 à 1500m
200 à 500 ft
< 800m
< 200 ft
Symboles :   Orages  Brouillard  Fortes neiges  Fortes précipitations  Vent > 20 kt
SIGMETs :   Divers  Orages  Givrage  Turbulence  Onde Orograph.  Cendres Volcan.






- Altitude de l'aérodrome : 126 ft
- Code IATA : TIA


LATI - Rinas Mother Teresa Arpt - Tirana

DERNIER METAR :
  • 231120Z 12010KT 9999 RA BKN047 OVC065 11/09 Q1008 REVCTS NOSIG

METARs EXPIRÉS :
  • 231050Z 15012KT 8000 RA OVC047 11/08 Q1009 NOSIG
  • 231020Z 12011KT 090V150 9999 SCT046 BKN090 12/07 Q1008 NOSIG
  • 230950Z 13009KT 9999 -RA FEW015 SCT049 BKN084 12/07 Q1009 NOSIG
  • 230920Z 14012KT 9999 -RA FEW001 BKN051 BKN088 12/07 Q1010 NOSIG
  • 230850Z 14009KT 9999 -DZ FEW038 BKN057 BKN070 13/06 Q1010 NOSIG

TAF TAF LATI
Valide du 23 à 06h jusqu'au 24 à 06h UTC


230500Z 2306/2406 VRB05KT 9999 SCT040 BKN080 TX13/2311Z TN05/2405Z
TEMPO 2309/2406 18014KT RA SCT025 OVC040
PROB40
TEMPO 2310/2318 4000 TSRA SCT020CB



MET'MAP, la Météo Aéronautique d'un coup d'oeil ! - Copyright ORBIFLY Décembre 2007 - Disclaimer

ORBIFLY MET'MAP TEAM :

Programmation & Développement : Alexandra Zaïnal
Sur une idée originale de : Baudouin d'Aumeries
Assistance à la programmation : Marc-Olivier Méhu
Soutien technique & logistique : Manuel Goepfert

Contact : metmap@orbifly.com




SOURCES & CREDITS :

   NOAA